sensor_id;sensor_type;location;lat;lon;timestamp;pressure;altitude;pressure_sealevel;temperature;humidity
11515;BME280;5814;41.936;25.556;2022-09-09T00:00:13;112497.60;;;-145.99;100.00
11515;BME280;5814;41.936;25.556;2022-09-09T00:02:40;112497.60;;;-145.99;100.00
11515;BME280;5814;41.936;25.556;2022-09-09T00:07:46;112497.60;;;-145.99;100.00
11515;BME280;5814;41.936;25.556;2022-09-09T00:10:30;112497.60;;;-145.99;100.00
11515;BME280;5814;41.936;25.556;2022-09-09T00:13:15;112497.60;;;-145.99;100.00
11515;BME280;5814;41.936;25.556;2022-09-09T00:15:41;112497.60;;;-145.99;100.00
11515;BME280;5814;41.936;25.556;2022-09-09T00:18:13;112497.60;;;-145.99;100.00
11515;BME280;5814;41.936;25.556;2022-09-09T00:20:36;112497.60;;;-145.99;100.00
11515;BME280;5814;41.936;25.556;2022-09-09T00:23:12;112497.60;;;-145.99;100.00
11515;BME280;5814;41.936;25.556;2022-09-09T00:25:43;112497.60;;;-145.99;100.00
11515;BME280;5814;41.936;25.556;2022-09-09T00:28:13;112497.60;;;-145.99;100.00
11515;BME280;5814;41.936;25.556;2022-09-09T00:30:37;112497.60;;;-145.99;100.00
11515;BME280;5814;41.936;25.556;2022-09-09T00:33:09;112497.60;;;-145.99;100.00
11515;BME280;5814;41.936;25.556;2022-09-09T00:35:38;112497.60;;;-145.99;100.00
11515;BME280;5814;41.936;25.556;2022-09-09T00:38:10;112497.60;;;-145.99;100.00
11515;BME280;5814;41.936;25.556;2022-09-09T00:40:33;112497.60;;;-145.99;100.00
11515;BME280;5814;41.936;25.556;2022-09-09T00:48:10;112497.60;;;-145.99;100.00
11515;BME280;5814;41.936;25.556;2022-09-09T00:50:53;112497.60;;;-145.99;100.00
11515;BME280;5814;41.936;25.556;2022-09-09T00:56:14;112497.60;;;-145.99;100.00
11515;BME280;5814;41.936;25.556;2022-09-09T00:58:43;112497.60;;;-145.99;100.00
11515;BME280;5814;41.936;25.556;2022-09-09T01:01:11;112497.60;;;-145.99;100.00
11515;BME280;5814;41.936;25.556;2022-09-09T01:03:44;112497.60;;;-145.99;100.00
11515;BME280;5814;41.936;25.556;2022-09-09T01:06:16;112497.60;;;-145.99;100.00
11515;BME280;5814;41.936;25.556;2022-09-09T01:09:38;112497.60;;;-145.99;100.00
11515;BME280;5814;41.936;25.556;2022-09-09T01:11:57;112497.60;;;-145.99;100.00
11515;BME280;5814;41.936;25.556;2022-09-09T01:16:56;112497.60;;;-145.99;100.00
11515;BME280;5814;41.936;25.556;2022-09-09T01:19:27;112497.60;;;-145.99;100.00
11515;BME280;5814;41.936;25.556;2022-09-09T01:22:13;112497.60;;;-145.99;100.00
11515;BME280;5814;41.936;25.556;2022-09-09T01:24:38;112497.60;;;-145.99;100.00
11515;BME280;5814;41.936;25.556;2022-09-09T01:27:05;112497.60;;;-145.99;100.00
11515;BME280;5814;41.936;25.556;2022-09-09T01:29:32;112497.60;;;-145.99;100.00
11515;BME280;5814;41.936;25.556;2022-09-09T01:32:02;112497.60;;;-145.99;100.00
11515;BME280;5814;41.936;25.556;2022-09-09T01:34:29;112497.60;;;-145.99;100.00
11515;BME280;5814;41.936;25.556;2022-09-09T01:36:59;112497.60;;;-145.99;100.00
11515;BME280;5814;41.936;25.556;2022-09-09T01:39:24;112497.60;;;-145.99;100.00
11515;BME280;5814;41.936;25.556;2022-09-09T01:41:52;112497.60;;;-145.99;100.00
11515;BME280;5814;41.936;25.556;2022-09-09T01:44:19;112497.60;;;-145.99;100.00
11515;BME280;5814;41.936;25.556;2022-09-09T01:46:46;112497.60;;;-145.99;100.00
11515;BME280;5814;41.936;25.556;2022-09-09T01:49:13;112497.60;;;-145.99;100.00
11515;BME280;5814;41.936;25.556;2022-09-09T01:51:40;112497.60;;;-145.99;100.00
11515;BME280;5814;41.936;25.556;2022-09-09T01:54:07;112497.60;;;-145.99;100.00
11515;BME280;5814;41.936;25.556;2022-09-09T01:56:58;112497.60;;;-145.99;100.00
11515;BME280;5814;41.936;25.556;2022-09-09T02:02:09;112497.60;;;-145.99;100.00
11515;BME280;5814;41.936;25.556;2022-09-09T02:04:38;112497.60;;;-145.99;100.00
11515;BME280;5814;41.936;25.556;2022-09-09T02:07:05;112497.60;;;-145.99;100.00
11515;BME280;5814;41.936;25.556;2022-09-09T02:09:31;112497.60;;;-145.99;100.00
11515;BME280;5814;41.936;25.556;2022-09-09T02:12:01;112497.60;;;-145.99;100.00
11515;BME280;5814;41.936;25.556;2022-09-09T02:14:30;112497.60;;;-145.99;100.00
11515;BME280;5814;41.936;25.556;2022-09-09T02:17:13;112497.60;;;-145.99;100.00
11515;BME280;5814;41.936;25.556;2022-09-09T02:19:44;112497.60;;;-145.99;100.00
11515;BME280;5814;41.936;25.556;2022-09-09T02:22:10;112497.60;;;-145.99;100.00
11515;BME280;5814;41.936;25.556;2022-09-09T02:24:39;112497.60;;;-145.99;100.00
11515;BME280;5814;41.936;25.556;2022-09-09T02:27:05;112497.60;;;-145.99;100.00
11515;BME280;5814;41.936;25.556;2022-09-09T02:29:34;112497.60;;;-145.99;100.00
11515;BME280;5814;41.936;25.556;2022-09-09T02:32:01;112497.60;;;-145.99;100.00
11515;BME280;5814;41.936;25.556;2022-09-09T02:34:27;112497.60;;;-145.99;100.00
11515;BME280;5814;41.936;25.556;2022-09-09T02:36:54;112497.60;;;-145.99;100.00
11515;BME280;5814;41.936;25.556;2022-09-09T02:39:22;112497.60;;;-145.99;100.00
11515;BME280;5814;41.936;25.556;2022-09-09T02:41:49;112497.60;;;-145.99;100.00
11515;BME280;5814;41.936;25.556;2022-09-09T02:44:16;112497.60;;;-145.99;100.00
11515;BME280;5814;41.936;25.556;2022-09-09T02:48:14;112497.60;;;-145.99;100.00
11515;BME280;5814;41.936;25.556;2022-09-09T02:50:15;112497.60;;;-145.99;100.00
11515;BME280;5814;41.936;25.556;2022-09-09T02:53:00;112497.60;;;-145.99;100.00
11515;BME280;5814;41.936;25.556;2022-09-09T02:55:30;112497.60;;;-145.99;100.00
11515;BME280;5814;41.936;25.556;2022-09-09T02:57:55;112497.60;;;-145.99;100.00
11515;BME280;5814;41.936;25.556;2022-09-09T03:00:24;112497.60;;;-145.99;100.00
11515;BME280;5814;41.936;25.556;2022-09-09T03:02:51;112497.60;;;-145.99;100.00
11515;BME280;5814;41.936;25.556;2022-09-09T03:05:18;112497.60;;;-145.99;100.00
11515;BME280;5814;41.936;25.556;2022-09-09T03:07:45;112497.60;;;-145.99;100.00
11515;BME280;5814;41.936;25.556;2022-09-09T03:10:12;112497.60;;;-145.99;100.00
11515;BME280;5814;41.936;25.556;2022-09-09T03:12:39;112497.60;;;-145.99;100.00
11515;BME280;5814;41.936;25.556;2022-09-09T03:15:07;112497.60;;;-145.99;100.00
11515;BME280;5814;41.936;25.556;2022-09-09T03:17:35;112497.60;;;-145.99;100.00
11515;BME280;5814;41.936;25.556;2022-09-09T03:20:03;112497.60;;;-145.99;100.00
11515;BME280;5814;41.936;25.556;2022-09-09T03:22:30;112497.60;;;-145.99;100.00
11515;BME280;5814;41.936;25.556;2022-09-09T03:24:57;112497.60;;;-145.99;100.00
11515;BME280;5814;41.936;25.556;2022-09-09T03:27:24;112497.60;;;-145.99;100.00
11515;BME280;5814;41.936;25.556;2022-09-09T03:29:51;112497.60;;;-145.99;100.00
11515;BME280;5814;41.936;25.556;2022-09-09T03:32:18;112497.60;;;-145.99;100.00
11515;BME280;5814;41.936;25.556;2022-09-09T03:34:46;112497.60;;;-145.99;100.00
11515;BME280;5814;41.936;25.556;2022-09-09T03:37:13;112497.60;;;-145.99;100.00
11515;BME280;5814;41.936;25.556;2022-09-09T03:39:40;112497.60;;;-145.99;100.00
11515;BME280;5814;41.936;25.556;2022-09-09T03:42:07;112497.60;;;-145.99;100.00
11515;BME280;5814;41.936;25.556;2022-09-09T03:44:34;112497.60;;;-145.99;100.00
11515;BME280;5814;41.936;25.556;2022-09-09T03:47:01;112497.60;;;-145.99;100.00
11515;BME280;5814;41.936;25.556;2022-09-09T03:49:29;112497.60;;;-145.99;100.00
11515;BME280;5814;41.936;25.556;2022-09-09T03:51:56;112497.60;;;-145.99;100.00
11515;BME280;5814;41.936;25.556;2022-09-09T03:54:23;112497.60;;;-145.99;100.00
11515;BME280;5814;41.936;25.556;2022-09-09T03:56:50;112497.60;;;-145.99;100.00
11515;BME280;5814;41.936;25.556;2022-09-09T03:59:17;112497.60;;;-145.99;100.00
11515;BME280;5814;41.936;25.556;2022-09-09T04:01:45;112497.60;;;-145.99;100.00
11515;BME280;5814;41.936;25.556;2022-09-09T04:04:12;112497.60;;;-145.99;100.00
11515;BME280;5814;41.936;25.556;2022-09-09T04:06:39;112497.60;;;-145.99;100.00
11515;BME280;5814;41.936;25.556;2022-09-09T04:09:06;112497.60;;;-145.99;100.00
11515;BME280;5814;41.936;25.556;2022-09-09T04:11:33;112497.60;;;-145.99;100.00
11515;BME280;5814;41.936;25.556;2022-09-09T04:14:00;112497.60;;;-145.99;100.00
11515;BME280;5814;41.936;25.556;2022-09-09T04:16:28;112497.60;;;-145.99;100.00
11515;BME280;5814;41.936;25.556;2022-09-09T04:18:55;112497.60;;;-145.99;100.00
11515;BME280;5814;41.936;25.556;2022-09-09T04:21:22;112497.60;;;-145.99;100.00
11515;BME280;5814;41.936;25.556;2022-09-09T04:23:49;112497.60;;;-145.99;100.00
11515;BME280;5814;41.936;25.556;2022-09-09T04:26:16;112497.60;;;-145.99;100.00
11515;BME280;5814;41.936;25.556;2022-09-09T04:28:43;112497.60;;;-145.99;100.00
11515;BME280;5814;41.936;25.556;2022-09-09T04:31:15;112497.60;;;-145.99;100.00
11515;BME280;5814;41.936;25.556;2022-09-09T04:33:40;112497.60;;;-145.99;100.00
11515;BME280;5814;41.936;25.556;2022-09-09T04:36:08;112497.60;;;-145.99;100.00
11515;BME280;5814;41.936;25.556;2022-09-09T04:38:35;112497.60;;;-145.99;100.00
11515;BME280;5814;41.936;25.556;2022-09-09T04:41:02;112497.60;;;-145.99;100.00
11515;BME280;5814;41.936;25.556;2022-09-09T04:43:29;112497.60;;;-145.99;100.00
11515;BME280;5814;41.936;25.556;2022-09-09T04:45:57;112497.60;;;-145.99;100.00
11515;BME280;5814;41.936;25.556;2022-09-09T04:48:24;112497.60;;;-145.99;100.00
11515;BME280;5814;41.936;25.556;2022-09-09T04:50:57;112497.60;;;-145.99;100.00
11515;BME280;5814;41.936;25.556;2022-09-09T04:53:24;112497.60;;;-145.99;100.00
11515;BME280;5814;41.936;25.556;2022-09-09T04:55:53;112497.60;;;-145.99;100.00
11515;BME280;5814;41.936;25.556;2022-09-09T04:58:19;112497.60;;;-145.99;100.00
11515;BME280;5814;41.936;25.556;2022-09-09T05:00:46;112497.60;;;-145.99;100.00
11515;BME280;5814;41.936;25.556;2022-09-09T05:03:13;112497.60;;;-145.99;100.00
11515;BME280;5814;41.936;25.556;2022-09-09T05:05:40;112497.60;;;-145.99;100.00
11515;BME280;5814;41.936;25.556;2022-09-09T05:08:08;112497.60;;;-145.99;100.00
11515;BME280;5814;41.936;25.556;2022-09-09T05:10:37;112497.60;;;-145.99;100.00
11515;BME280;5814;41.936;25.556;2022-09-09T05:13:02;112497.60;;;-145.99;100.00
11515;BME280;5814;41.936;25.556;2022-09-09T05:15:29;112497.60;;;-145.99;100.00
11515;BME280;5814;41.936;25.556;2022-09-09T05:17:57;112497.60;;;-145.99;100.00
11515;BME280;5814;41.936;25.556;2022-09-09T05:20:24;112497.60;;;-145.99;100.00
11515;BME280;5814;41.936;25.556;2022-09-09T05:22:54;112497.60;;;-145.99;100.00
11515;BME280;5814;41.936;25.556;2022-09-09T05:25:21;112497.60;;;-145.99;100.00
11515;BME280;5814;41.936;25.556;2022-09-09T05:27:48;112497.60;;;-145.99;100.00
11515;BME280;5814;41.936;25.556;2022-09-09T05:30:15;112497.60;;;-145.99;100.00
11515;BME280;5814;41.936;25.556;2022-09-09T05:32:42;112497.60;;;-145.99;100.00
11515;BME280;5814;41.936;25.556;2022-09-09T05:35:09;112497.60;;;-145.99;100.00
11515;BME280;5814;41.936;25.556;2022-09-09T05:37:37;112497.60;;;-145.99;100.00
11515;BME280;5814;41.936;25.556;2022-09-09T05:40:04;112497.60;;;-145.99;100.00
11515;BME280;5814;41.936;25.556;2022-09-09T05:42:31;112497.60;;;-145.99;100.00
11515;BME280;5814;41.936;25.556;2022-09-09T05:44:59;112497.60;;;-145.99;100.00
11515;BME280;5814;41.936;25.556;2022-09-09T05:47:26;112497.60;;;-145.99;100.00
11515;BME280;5814;41.936;25.556;2022-09-09T05:49:53;112497.60;;;-145.99;100.00
11515;BME280;5814;41.936;25.556;2022-09-09T05:52:20;112497.60;;;-145.99;100.00
11515;BME280;5814;41.936;25.556;2022-09-09T05:54:47;112497.60;;;-145.99;100.00
11515;BME280;5814;41.936;25.556;2022-09-09T05:57:15;112497.60;;;-145.99;100.00
11515;BME280;5814;41.936;25.556;2022-09-09T05:59:42;112497.60;;;-145.99;100.00
11515;BME280;5814;41.936;25.556;2022-09-09T06:02:09;112497.60;;;-145.99;100.00
11515;BME280;5814;41.936;25.556;2022-09-09T06:04:36;112497.60;;;-145.99;100.00
11515;BME280;5814;41.936;25.556;2022-09-09T06:07:04;112497.60;;;-145.99;100.00
11515;BME280;5814;41.936;25.556;2022-09-09T06:09:31;112497.60;;;-145.99;100.00
11515;BME280;5814;41.936;25.556;2022-09-09T06:11:58;112497.60;;;-145.99;100.00
11515;BME280;5814;41.936;25.556;2022-09-09T06:14:25;112497.60;;;-145.99;100.00
11515;BME280;5814;41.936;25.556;2022-09-09T06:16:52;112497.60;;;-145.99;100.00
11515;BME280;5814;41.936;25.556;2022-09-09T06:19:19;112497.60;;;-145.99;100.00
11515;BME280;5814;41.936;25.556;2022-09-09T06:21:46;112497.60;;;-145.99;100.00
11515;BME280;5814;41.936;25.556;2022-09-09T06:24:14;112497.60;;;-145.99;100.00
11515;BME280;5814;41.936;25.556;2022-09-09T06:26:41;112497.60;;;-145.99;100.00
11515;BME280;5814;41.936;25.556;2022-09-09T06:29:08;112497.60;;;-145.99;100.00
11515;BME280;5814;41.936;25.556;2022-09-09T06:31:35;112497.60;;;-145.99;100.00
11515;BME280;5814;41.936;25.556;2022-09-09T06:34:04;112497.60;;;-145.99;100.00
11515;BME280;5814;41.936;25.556;2022-09-09T06:36:30;112497.60;;;-145.99;100.00
11515;BME280;5814;41.936;25.556;2022-09-09T06:38:57;112497.60;;;-145.99;100.00
11515;BME280;5814;41.936;25.556;2022-09-09T06:41:24;112497.60;;;-145.99;100.00
11515;BME280;5814;41.936;25.556;2022-09-09T06:43:51;112497.60;;;-145.99;100.00
11515;BME280;5814;41.936;25.556;2022-09-09T06:46:19;112497.60;;;-145.99;100.00
11515;BME280;5814;41.936;25.556;2022-09-09T06:48:45;112497.60;;;-145.99;100.00
11515;BME280;5814;41.936;25.556;2022-09-09T06:51:17;112497.60;;;-145.99;100.00
11515;BME280;5814;41.936;25.556;2022-09-09T06:53:44;112497.60;;;-145.99;100.00
11515;BME280;5814;41.936;25.556;2022-09-09T06:56:21;112497.60;;;-145.99;100.00
11515;BME280;5814;41.936;25.556;2022-09-09T06:58:47;112497.60;;;-145.99;100.00
11515;BME280;5814;41.936;25.556;2022-09-09T07:01:15;112497.60;;;-145.99;100.00
11515;BME280;5814;41.936;25.556;2022-09-09T07:03:42;112497.60;;;-145.99;100.00
11515;BME280;5814;41.936;25.556;2022-09-09T07:08:36;112497.60;;;-145.99;100.00
11515;BME280;5814;41.936;25.556;2022-09-09T07:11:04;112497.60;;;-145.99;100.00
11515;BME280;5814;41.936;25.556;2022-09-09T07:13:31;112497.60;;;-145.99;100.00
11515;BME280;5814;41.936;25.556;2022-09-09T07:16:06;112497.60;;;-145.99;100.00
11515;BME280;5814;41.936;25.556;2022-09-09T07:18:33;112497.60;;;-145.99;100.00
11515;BME280;5814;41.936;25.556;2022-09-09T07:21:00;112497.60;;;-145.99;100.00
11515;BME280;5814;41.936;25.556;2022-09-09T07:23:27;112497.60;;;-145.99;100.00
11515;BME280;5814;41.936;25.556;2022-09-09T07:25:54;112497.60;;;-145.99;100.00
11515;BME280;5814;41.936;25.556;2022-09-09T07:28:22;112497.60;;;-145.99;100.00
11515;BME280;5814;41.936;25.556;2022-09-09T07:30:57;112497.60;;;-145.99;100.00
11515;BME280;5814;41.936;25.556;2022-09-09T07:33:24;112497.60;;;-145.99;100.00
11515;BME280;5814;41.936;25.556;2022-09-09T07:35:51;112497.60;;;-145.99;100.00
11515;BME280;5814;41.936;25.556;2022-09-09T07:38:19;112497.60;;;-145.99;100.00
11515;BME280;5814;41.936;25.556;2022-09-09T07:40:46;112497.60;;;-145.99;100.00
11515;BME280;5814;41.936;25.556;2022-09-09T07:43:13;112497.60;;;-145.99;100.00
11515;BME280;5814;41.936;25.556;2022-09-09T07:45:40;112497.60;;;-145.99;100.00
11515;BME280;5814;41.936;25.556;2022-09-09T07:48:08;112497.60;;;-145.99;100.00
11515;BME280;5814;41.936;25.556;2022-09-09T07:50:35;112497.60;;;-145.99;100.00
11515;BME280;5814;41.936;25.556;2022-09-09T07:53:02;112497.60;;;-145.99;100.00
11515;BME280;5814;41.936;25.556;2022-09-09T07:55:29;112497.60;;;-145.99;100.00
11515;BME280;5814;41.936;25.556;2022-09-09T07:57:56;112497.60;;;-145.99;100.00
11515;BME280;5814;41.936;25.556;2022-09-09T08:00:24;112497.60;;;-145.99;100.00
11515;BME280;5814;41.936;25.556;2022-09-09T08:02:51;112497.60;;;-145.99;100.00
11515;BME280;5814;41.936;25.556;2022-09-09T08:05:18;112497.60;;;-145.99;100.00
11515;BME280;5814;41.936;25.556;2022-09-09T08:07:45;112497.60;;;-145.99;100.00
11515;BME280;5814;41.936;25.556;2022-09-09T08:10:12;112497.60;;;-145.99;100.00
11515;BME280;5814;41.936;25.556;2022-09-09T08:12:40;112497.60;;;-145.99;100.00
11515;BME280;5814;41.936;25.556;2022-09-09T08:15:07;112497.60;;;-145.99;100.00
11515;BME280;5814;41.936;25.556;2022-09-09T08:17:34;112497.60;;;-145.99;100.00
11515;BME280;5814;41.936;25.556;2022-09-09T08:20:02;112497.60;;;-145.99;100.00
11515;BME280;5814;41.936;25.556;2022-09-09T08:22:29;112497.60;;;-145.99;100.00
11515;BME280;5814;41.936;25.556;2022-09-09T08:24:56;112497.60;;;-145.99;100.00
11515;BME280;5814;41.936;25.556;2022-09-09T08:27:23;112497.60;;;-145.99;100.00
11515;BME280;5814;41.936;25.556;2022-09-09T08:29:50;112497.60;;;-145.99;100.00
11515;BME280;5814;41.936;25.556;2022-09-09T08:32:18;112497.60;;;-145.99;100.00
11515;BME280;5814;41.936;25.556;2022-09-09T08:34:45;112497.60;;;-145.99;100.00
11515;BME280;5814;41.936;25.556;2022-09-09T08:37:12;112497.60;;;-145.99;100.00
11515;BME280;5814;41.936;25.556;2022-09-09T08:39:39;112497.60;;;-145.99;100.00
11515;BME280;5814;41.936;25.556;2022-09-09T08:42:17;112497.60;;;-145.99;100.00
11515;BME280;5814;41.936;25.556;2022-09-09T08:44:45;112497.60;;;-145.99;100.00
11515;BME280;5814;41.936;25.556;2022-09-09T08:47:51;112497.60;;;-145.99;100.00
11515;BME280;5814;41.936;25.556;2022-09-09T08:50:34;112497.60;;;-145.99;100.00
11515;BME280;5814;41.936;25.556;2022-09-09T08:53:02;112497.60;;;-145.99;100.00
11515;BME280;5814;41.936;25.556;2022-09-09T08:55:51;112497.60;;;-145.99;100.00
11515;BME280;5814;41.936;25.556;2022-09-09T08:58:23;112497.60;;;-145.99;100.00
11515;BME280;5814;41.936;25.556;2022-09-09T09:05:05;112497.60;;;-145.99;100.00
11515;BME280;5814;41.936;25.556;2022-09-09T09:06:42;112497.60;;;-145.99;100.00
11515;BME280;5814;41.936;25.556;2022-09-09T09:09:11;112497.60;;;-145.99;100.00
11515;BME280;5814;41.936;25.556;2022-09-09T09:11:37;112497.60;;;-145.99;100.00
11515;BME280;5814;41.936;25.556;2022-09-09T09:14:11;112497.60;;;-145.99;100.00
11515;BME280;5814;41.936;25.556;2022-09-09T09:16:39;112497.60;;;-145.99;100.00
11515;BME280;5814;41.936;25.556;2022-09-09T09:19:07;112497.60;;;-145.99;100.00
11515;BME280;5814;41.936;25.556;2022-09-09T09:21:36;112497.60;;;-145.99;100.00
11515;BME280;5814;41.936;25.556;2022-09-09T09:24:01;112497.60;;;-145.99;100.00
11515;BME280;5814;41.936;25.556;2022-09-09T09:26:36;112497.60;;;-145.99;100.00
11515;BME280;5814;41.936;25.556;2022-09-09T09:29:11;112497.60;;;-145.99;100.00
11515;BME280;5814;41.936;25.556;2022-09-09T09:31:37;112497.60;;;-145.99;100.00
11515;BME280;5814;41.936;25.556;2022-09-09T09:34:04;112497.60;;;-145.99;100.00
11515;BME280;5814;41.936;25.556;2022-09-09T09:36:37;112497.60;;;-145.99;100.00
11515;BME280;5814;41.936;25.556;2022-09-09T09:39:02;112497.60;;;-145.99;100.00
11515;BME280;5814;41.936;25.556;2022-09-09T09:41:43;112497.60;;;-145.99;100.00
11515;BME280;5814;41.936;25.556;2022-09-09T09:44:24;112497.60;;;-145.99;100.00
11515;BME280;5814;41.936;25.556;2022-09-09T09:46:49;112497.60;;;-145.99;100.00
11515;BME280;5814;41.936;25.556;2022-09-09T09:49:17;112497.60;;;-145.99;100.00
11515;BME280;5814;41.936;25.556;2022-09-09T09:51:44;112497.60;;;-145.99;100.00
11515;BME280;5814;41.936;25.556;2022-09-09T09:54:29;112497.60;;;-145.99;100.00
11515;BME280;5814;41.936;25.556;2022-09-09T09:56:56;112497.60;;;-145.99;100.00
11515;BME280;5814;41.936;25.556;2022-09-09T10:02:23;112497.60;;;-145.99;100.00
11515;BME280;5814;41.936;25.556;2022-09-09T10:07:19;99251.94;;;29.53;47.53
11515;BME280;5814;41.936;25.556;2022-09-09T10:09:50;99258.53;;;29.32;47.37
11515;BME280;5814;41.936;25.556;2022-09-09T10:12:58;99258.91;;;29.24;47.11
11515;BME280;5814;41.936;25.556;2022-09-09T10:18:03;99255.16;;;29.26;46.90
11515;BME280;5814;41.936;25.556;2022-09-09T10:25:48;99246.31;;;30.15;44.73
11515;BME280;5814;41.936;25.556;2022-09-09T10:31:07;99236.20;;;30.09;44.85
11515;BME280;5814;41.936;25.556;2022-09-09T10:33:47;99236.92;;;29.94;44.60
11515;BME280;5814;41.936;25.556;2022-09-09T10:36:20;99233.94;;;29.88;44.51
11515;BME280;5814;41.936;25.556;2022-09-09T10:38:57;99230.55;;;30.07;44.07
11515;BME280;5814;41.936;25.556;2022-09-09T10:44:18;99222.87;;;30.24;43.42
11515;BME280;5814;41.936;25.556;2022-09-09T10:46:58;99213.38;;;30.33;43.81
11515;BME280;5814;41.936;25.556;2022-09-09T10:52:12;99202.30;;;30.61;42.53
11515;BME280;5814;41.936;25.556;2022-09-09T10:54:48;99211.39;;;30.68;42.08
11515;BME280;5814;41.936;25.556;2022-09-09T10:57:14;99203.89;;;30.55;42.49
11515;BME280;5814;41.936;25.556;2022-09-09T10:59:42;99203.21;;;30.69;42.02
11515;BME280;5814;41.936;25.556;2022-09-09T11:02:22;99197.42;;;30.48;42.24
11515;BME280;5814;41.936;25.556;2022-09-09T11:04:49;99191.34;;;30.67;42.01
11515;BME280;5814;41.936;25.556;2022-09-09T11:07:19;99190.91;;;30.83;42.08
11515;BME280;5814;41.936;25.556;2022-09-09T11:09:44;99180.75;;;30.65;41.94
11515;BME280;5814;41.936;25.556;2022-09-09T11:12:11;99176.63;;;30.70;42.10
11515;BME280;5814;41.936;25.556;2022-09-09T11:14:39;99179.91;;;30.77;42.41
11515;BME280;5814;41.936;25.556;2022-09-09T11:17:06;99170.61;;;30.96;42.19
11515;BME280;5814;41.936;25.556;2022-09-09T11:19:34;99166.73;;;31.02;42.15
11515;BME280;5814;41.936;25.556;2022-09-09T11:22:34;99162.28;;;31.26;41.58
11515;BME280;5814;41.936;25.556;2022-09-09T11:25:14;99165.28;;;31.07;41.79
11515;BME280;5814;41.936;25.556;2022-09-09T11:27:54;99152.02;;;31.21;41.33
11515;BME280;5814;41.936;25.556;2022-09-09T11:30:21;99151.95;;;31.18;41.24
11515;BME280;5814;41.936;25.556;2022-09-09T11:33:34;99159.79;;;31.12;41.61
11515;BME280;5814;41.936;25.556;2022-09-09T11:36:21;99149.39;;;31.48;40.90
11515;BME280;5814;41.936;25.556;2022-09-09T11:38:46;99153.41;;;31.05;41.32
11515;BME280;5814;41.936;25.556;2022-09-09T11:41:12;99147.45;;;31.26;41.23
11515;BME280;5814;41.936;25.556;2022-09-09T11:43:47;99132.87;;;31.24;41.05
11515;BME280;5814;41.936;25.556;2022-09-09T11:46:15;99145.98;;;31.15;41.12
11515;BME280;5814;41.936;25.556;2022-09-09T11:48:42;99142.77;;;31.35;40.98
11515;BME280;5814;41.936;25.556;2022-09-09T11:51:10;99139.47;;;31.17;41.25
11515;BME280;5814;41.936;25.556;2022-09-09T11:53:47;99138.17;;;31.52;40.72
11515;BME280;5814;41.936;25.556;2022-09-09T11:56:06;99134.84;;;31.77;40.97
11515;BME280;5814;41.936;25.556;2022-09-09T11:58:36;99129.37;;;31.90;40.33
11515;BME280;5814;41.936;25.556;2022-09-09T12:01:01;99120.16;;;32.07;40.15
11515;BME280;5814;41.936;25.556;2022-09-09T12:03:50;99113.80;;;32.00;39.88
11515;BME280;5814;41.936;25.556;2022-09-09T12:06:26;99125.31;;;32.05;39.79
11515;BME280;5814;41.936;25.556;2022-09-09T12:08:56;99116.52;;;31.96;39.83
11515;BME280;5814;41.936;25.556;2022-09-09T12:11:24;99102.88;;;32.16;39.64
11515;BME280;5814;41.936;25.556;2022-09-09T12:13:54;99101.03;;;32.43;39.09
11515;BME280;5814;41.936;25.556;2022-09-09T12:16:28;99092.34;;;32.33;39.31
11515;BME280;5814;41.936;25.556;2022-09-09T12:19:02;99092.22;;;32.07;39.47
11515;BME280;5814;41.936;25.556;2022-09-09T12:21:44;99093.23;;;31.99;39.71
11515;BME280;5814;41.936;25.556;2022-09-09T12:24:10;99079.19;;;31.72;40.05
11515;BME280;5814;41.936;25.556;2022-09-09T12:26:47;99075.02;;;31.77;40.07
11515;BME280;5814;41.936;25.556;2022-09-09T12:29:30;99074.25;;;32.19;39.43
11515;BME280;5814;41.936;25.556;2022-09-09T12:32:04;99068.35;;;32.15;39.45
11515;BME280;5814;41.936;25.556;2022-09-09T12:34:38;99079.66;;;32.45;39.13
11515;BME280;5814;41.936;25.556;2022-09-09T12:37:06;99073.54;;;32.13;39.48
11515;BME280;5814;41.936;25.556;2022-09-09T12:39:36;99069.23;;;32.23;39.43
11515;BME280;5814;41.936;25.556;2022-09-09T12:42:02;99066.27;;;32.33;39.24
11515;BME280;5814;41.936;25.556;2022-09-09T12:44:30;99059.18;;;32.39;39.01
11515;BME280;5814;41.936;25.556;2022-09-09T12:46:58;99064.41;;;32.41;39.15
11515;BME280;5814;41.936;25.556;2022-09-09T12:49:29;99051.33;;;32.60;38.73
11515;BME280;5814;41.936;25.556;2022-09-09T12:51:56;99050.45;;;32.78;38.62
11515;BME280;5814;41.936;25.556;2022-09-09T12:54:23;99030.22;;;32.74;38.72
11515;BME280;5814;41.936;25.556;2022-09-09T12:56:50;99035.73;;;32.47;38.78
11515;BME280;5814;41.936;25.556;2022-09-09T12:59:23;99019.53;;;32.47;38.97
11515;BME280;5814;41.936;25.556;2022-09-09T13:01:55;99023.65;;;32.46;39.55
11515;BME280;5814;41.936;25.556;2022-09-09T13:04:20;99011.34;;;32.36;39.28
11515;BME280;5814;41.936;25.556;2022-09-09T13:06:46;99008.55;;;32.37;39.14
11515;BME280;5814;41.936;25.556;2022-09-09T13:09:13;99018.37;;;32.60;39.05
11515;BME280;5814;41.936;25.556;2022-09-09T13:11:42;99011.72;;;32.60;38.96
11515;BME280;5814;41.936;25.556;2022-09-09T13:14:16;99002.36;;;32.74;38.71
11515;BME280;5814;41.936;25.556;2022-09-09T13:16:42;99010.51;;;33.07;38.32
11515;BME280;5814;41.936;25.556;2022-09-09T13:19:14;99008.61;;;33.15;38.20
11515;BME280;5814;41.936;25.556;2022-09-09T13:21:41;99011.69;;;32.89;38.67
11515;BME280;5814;41.936;25.556;2022-09-09T13:24:35;98986.58;;;32.59;38.68
11515;BME280;5814;41.936;25.556;2022-09-09T13:27:24;99016.28;;;32.81;38.64